createdAt,value
2022-08-31T00:01:20.646Z,58.83
2022-08-31T00:03:56.218Z,58.88
2022-08-31T00:06:23.922Z,58.76
2022-08-31T00:08:51.580Z,58.64
2022-08-31T00:11:27.900Z,58.86
2022-08-31T00:13:57.007Z,58.38
2022-08-31T00:16:25.572Z,58.46
2022-08-31T00:18:54.842Z,58.30
2022-08-31T00:21:22.888Z,58.51
2022-08-31T00:23:51.253Z,58.42
2022-08-31T00:26:19.013Z,58.64
2022-08-31T00:28:46.713Z,58.82
2022-08-31T00:31:14.467Z,58.47
2022-08-31T00:33:42.493Z,58.76
2022-08-31T00:36:13.632Z,58.73
2022-08-31T00:38:41.693Z,58.63
2022-08-31T00:41:09.717Z,58.58
2022-08-31T00:43:40.059Z,58.59
2022-08-31T00:46:07.959Z,58.86
2022-08-31T00:48:35.840Z,58.54
2022-08-31T00:51:03.506Z,58.45
2022-08-31T00:53:32.518Z,58.42
2022-08-31T00:56:00.277Z,58.50
2022-08-31T00:58:28.037Z,58.58
2022-08-31T01:00:55.831Z,58.43
2022-08-31T01:03:23.697Z,58.51
2022-08-31T01:05:51.440Z,58.06
2022-08-31T01:08:19.073Z,58.18
2022-08-31T01:10:55.998Z,58.28
2022-08-31T01:13:23.648Z,58.18
2022-08-31T01:15:56.188Z,57.97
2022-08-31T01:18:24.508Z,58.35
2022-08-31T01:20:57.140Z,58.50
2022-08-31T01:23:27.393Z,58.29
2022-08-31T01:25:55.269Z,58.49
2022-08-31T01:28:23.014Z,58.26
2022-08-31T01:30:59.083Z,58.17
2022-08-31T01:33:26.902Z,58.33
2022-08-31T01:35:54.617Z,58.46
2022-08-31T01:38:22.254Z,58.36
2022-08-31T01:40:53.844Z,58.57
2022-08-31T01:43:21.725Z,58.44
2022-08-31T01:45:49.422Z,58.41
2022-08-31T01:48:17.269Z,58.18
2022-08-31T01:50:45.186Z,58.32
2022-08-31T01:53:13.038Z,58.42
2022-08-31T01:55:40.803Z,58.21
2022-08-31T01:58:09.874Z,58.43
2022-08-31T02:00:37.669Z,58.43
2022-08-31T02:03:07.767Z,58.48
2022-08-31T02:05:35.557Z,58.20
2022-08-31T02:08:03.559Z,58.36
2022-08-31T02:10:31.262Z,58.42
2022-08-31T02:12:59.172Z,58.21
2022-08-31T02:15:28.176Z,58.25
2022-08-31T02:17:55.805Z,58.40
2022-08-31T02:20:23.413Z,58.42
2022-08-31T02:22:51.040Z,58.32
2022-08-31T02:25:18.892Z,58.23
2022-08-31T02:27:46.604Z,58.24
2022-08-31T02:30:16.408Z,58.29
2022-08-31T02:32:45.640Z,58.24
2022-08-31T02:35:13.415Z,58.40
2022-08-31T02:37:41.105Z,58.41
2022-08-31T02:40:12.196Z,58.24
2022-08-31T02:42:53.225Z,58.15
2022-08-31T02:45:21.868Z,58.37
2022-08-31T02:47:50.989Z,58.41
2022-08-31T02:50:18.782Z,58.50
2022-08-31T02:52:46.716Z,58.40
2022-08-31T02:55:14.450Z,58.73
2022-08-31T02:57:42.158Z,58.22
2022-08-31T03:00:11.593Z,58.44
2022-08-31T03:02:41.025Z,58.28
2022-08-31T03:05:11.179Z,58.46
2022-08-31T03:07:38.880Z,58.38
2022-08-31T03:10:08.302Z,58.16
2022-08-31T03:12:36.033Z,58.41
2022-08-31T03:15:03.709Z,58.34
2022-08-31T03:17:31.377Z,58.40
2022-08-31T03:20:05.675Z,58.34
2022-08-31T03:22:34.777Z,58.27
2022-08-31T03:25:03.918Z,58.25
2022-08-31T03:27:31.596Z,58.43
2022-08-31T03:29:59.600Z,58.44
2022-08-31T03:32:27.496Z,58.39
2022-08-31T03:34:55.980Z,58.32
2022-08-31T03:37:23.810Z,58.40
2022-08-31T03:39:52.979Z,58.47
2022-08-31T03:42:20.803Z,58.20
2022-08-31T03:44:48.654Z,58.60
2022-08-31T03:47:16.794Z,58.20
2022-08-31T03:49:44.817Z,58.34
2022-08-31T03:52:12.728Z,58.40
2022-08-31T03:54:40.659Z,58.12
2022-08-31T03:57:09.990Z,58.58
2022-08-31T03:59:37.712Z,58.54
2022-08-31T04:02:05.574Z,58.54
2022-08-31T04:04:34.898Z,58.39
2022-08-31T04:07:02.598Z,58.37
2022-08-31T04:09:30.257Z,58.54
2022-08-31T04:11:57.977Z,58.22
2022-08-31T04:14:27.058Z,58.37
2022-08-31T04:16:54.772Z,58.58
2022-08-31T04:19:24.890Z,58.40
2022-08-31T04:21:52.797Z,58.71
2022-08-31T04:24:20.527Z,58.47
2022-08-31T04:26:48.631Z,58.56
2022-08-31T04:29:16.278Z,58.65
2022-08-31T04:31:45.264Z,58.85
2022-08-31T04:34:12.868Z,58.50
2022-08-31T04:36:40.544Z,58.71
2022-08-31T04:39:08.969Z,58.51
2022-08-31T04:41:37.831Z,58.47
2022-08-31T04:44:05.506Z,58.29
2022-08-31T04:46:33.718Z,59.13
2022-08-31T04:49:02.692Z,59.01
2022-08-31T04:51:31.580Z,58.87
2022-08-31T04:53:59.256Z,58.85
2022-08-31T04:56:27.866Z,58.90
2022-08-31T04:58:56.521Z,58.94
2022-08-31T05:01:25.202Z,59.02
2022-08-31T05:03:53.310Z,58.96
2022-08-31T05:06:23.044Z,59.09
2022-08-31T05:08:53.354Z,58.64
2022-08-31T05:11:24.835Z,59.02
2022-08-31T05:13:53.440Z,58.90
2022-08-31T05:16:21.756Z,58.95
2022-08-31T05:18:50.187Z,58.85
2022-08-31T05:21:19.397Z,58.92
2022-08-31T05:23:48.510Z,59.17
2022-08-31T05:26:23.525Z,59.37
2022-08-31T05:28:53.853Z,59.17
2022-08-31T05:31:21.768Z,59.12
2022-08-31T05:33:49.617Z,59.17
2022-08-31T05:36:17.562Z,59.11
2022-08-31T05:38:45.371Z,59.29
2022-08-31T05:41:14.495Z,59.20
2022-08-31T05:43:42.137Z,59.29
2022-08-31T05:46:10.811Z,59.27
2022-08-31T05:48:38.758Z,59.18
2022-08-31T05:51:07.974Z,59.17
2022-08-31T05:53:40.246Z,59.15
2022-08-31T05:56:10.522Z,59.52
2022-08-31T05:58:40.138Z,59.37
2022-08-31T06:01:13.974Z,59.63
2022-08-31T06:03:41.930Z,59.37
2022-08-31T06:06:10.258Z,59.49
2022-08-31T06:08:38.723Z,59.42
2022-08-31T06:11:07.037Z,59.25
2022-08-31T06:13:34.754Z,59.41
2022-08-31T06:16:04.331Z,59.27
2022-08-31T06:18:32.112Z,59.49
2022-08-31T06:21:03.605Z,59.58
2022-08-31T06:23:31.466Z,59.24
2022-08-31T06:26:03.589Z,59.26
2022-08-31T06:28:32.598Z,59.67
2022-08-31T06:31:02.973Z,59.42
2022-08-31T06:33:30.681Z,59.50
2022-08-31T06:35:58.445Z,59.38
2022-08-31T06:38:26.413Z,59.55
2022-08-31T06:40:54.133Z,59.56
2022-08-31T06:43:21.863Z,59.61
2022-08-31T06:45:49.682Z,59.43
2022-08-31T06:48:18.848Z,59.40
2022-08-31T06:50:46.511Z,59.56
2022-08-31T06:53:14.229Z,59.64
2022-08-31T06:55:41.856Z,59.76
2022-08-31T06:58:09.512Z,59.74
2022-08-31T07:00:37.148Z,59.91
2022-08-31T07:03:22.981Z,59.91
2022-08-31T07:05:53.000Z,59.91
2022-08-31T07:08:20.792Z,59.94
2022-08-31T07:10:48.545Z,60.28
2022-08-31T07:13:16.194Z,60.10
2022-08-31T07:15:43.933Z,60.10
2022-08-31T07:18:11.689Z,60.17
2022-08-31T07:20:39.431Z,60.02
2022-08-31T07:23:08.541Z,60.10
2022-08-31T07:25:39.152Z,59.99
2022-08-31T07:28:06.974Z,60.14
2022-08-31T07:30:39.867Z,60.24
2022-08-31T07:33:07.602Z,60.26
2022-08-31T07:35:35.290Z,60.49
2022-08-31T07:38:22.962Z,60.58
2022-08-31T07:41:09.686Z,60.63
2022-08-31T07:43:37.472Z,60.90
2022-08-31T07:46:07.285Z,61.03
2022-08-31T07:48:34.991Z,61.12
2022-08-31T07:51:02.673Z,61.24
2022-08-31T07:53:31.462Z,61.26
2022-08-31T07:56:00.441Z,61.54
2022-08-31T07:58:28.160Z,61.71
2022-08-31T08:00:55.796Z,61.81
2022-08-31T08:03:23.764Z,61.96
2022-08-31T08:05:51.867Z,62.20
2022-08-31T08:08:22.850Z,61.83
2022-08-31T08:10:52.213Z,61.85
2022-08-31T08:13:23.098Z,61.96
2022-08-31T08:15:52.305Z,62.00
2022-08-31T08:18:20.532Z,62.12
2022-08-31T08:20:48.280Z,62.09
2022-08-31T08:23:18.448Z,62.31
2022-08-31T08:25:56.004Z,62.32
2022-08-31T08:28:42.609Z,62.30
2022-08-31T08:31:13.171Z,62.37
2022-08-31T08:33:40.946Z,62.57
2022-08-31T08:36:08.899Z,62.36
2022-08-31T08:38:39.099Z,62.31
2022-08-31T08:41:08.065Z,62.42
2022-08-31T08:43:38.385Z,62.47
2022-08-31T08:46:31.388Z,62.56
2022-08-31T08:48:56.207Z,62.69
2022-08-31T08:51:25.131Z,62.64
2022-08-31T08:53:54.894Z,62.44
2022-08-31T08:56:33.453Z,62.81
2022-08-31T08:59:07.361Z,62.87
2022-08-31T09:01:37.863Z,62.90
2022-08-31T09:04:08.613Z,62.79
2022-08-31T09:06:45.901Z,62.73
2022-08-31T09:09:25.600Z,62.92
2022-08-31T09:11:59.629Z,62.42
2022-08-31T09:14:57.080Z,62.74
2022-08-31T09:17:35.109Z,62.95
2022-08-31T09:20:04.096Z,62.84
2022-08-31T09:22:33.189Z,62.87
2022-08-31T09:25:02.644Z,63.03
2022-08-31T09:27:47.153Z,62.83
2022-08-31T09:30:18.639Z,63.08
2022-08-31T09:32:55.881Z,63.01
2022-08-31T09:35:25.561Z,63.07
2022-08-31T09:37:59.218Z,62.76
2022-08-31T09:40:36.104Z,62.96
2022-08-31T09:43:06.388Z,62.87
2022-08-31T09:45:41.818Z,62.71
2022-08-31T09:48:10.180Z,62.87
2022-08-31T09:50:45.041Z,62.85
2022-08-31T09:53:39.086Z,62.54
2022-08-31T09:56:15.458Z,62.53
2022-08-31T09:58:44.536Z,62.37
2022-08-31T10:01:17.249Z,62.97
2022-08-31T10:03:45.549Z,62.66
2022-08-31T10:06:45.633Z,61.86
2022-08-31T10:09:28.549Z,63.47
2022-08-31T10:11:57.599Z,63.03
2022-08-31T10:14:29.060Z,62.98
2022-08-31T10:17:02.654Z,62.97
2022-08-31T10:19:38.037Z,62.94
2022-08-31T10:22:07.447Z,62.82
2022-08-31T10:24:39.149Z,62.50
2022-08-31T10:27:14.860Z,62.44
2022-08-31T10:29:46.134Z,62.22
2022-08-31T10:32:41.356Z,62.84
2022-08-31T10:35:14.900Z,62.59
2022-08-31T10:37:50.030Z,62.51
2022-08-31T10:40:19.133Z,62.47
2022-08-31T10:42:50.136Z,62.40
2022-08-31T10:45:19.036Z,62.32
2022-08-31T10:47:49.312Z,62.43
2022-08-31T10:50:23.173Z,62.37
2022-08-31T10:52:53.297Z,62.51
2022-08-31T10:55:29.070Z,62.61
2022-08-31T10:57:59.823Z,62.21
2022-08-31T11:00:47.756Z,62.50
2022-08-31T11:03:22.185Z,62.63
2022-08-31T11:05:52.747Z,62.73
2022-08-31T11:08:31.102Z,62.82
2022-08-31T11:10:59.146Z,62.75
2022-08-31T11:13:39.594Z,62.83
2022-08-31T11:16:30.770Z,62.86
2022-08-31T11:19:14.222Z,62.79
2022-08-31T11:22:00.357Z,62.70
2022-08-31T11:24:54.097Z,62.64
2022-08-31T11:27:23.599Z,62.83
2022-08-31T11:29:56.562Z,62.80
2022-08-31T11:32:25.592Z,62.74
2022-08-31T11:34:56.608Z,62.86
2022-08-31T11:37:58.976Z,62.59
2022-08-31T11:41:02.837Z,62.87
2022-08-31T11:43:57.704Z,62.79
2022-08-31T11:47:05.175Z,62.54
2022-08-31T11:49:47.910Z,62.83
2022-08-31T11:52:31.995Z,62.86
2022-08-31T11:55:08.933Z,62.60
2022-08-31T11:58:08.930Z,62.50
2022-08-31T12:00:42.824Z,62.58
2022-08-31T12:03:12.308Z,62.63
2022-08-31T12:05:50.911Z,62.51
2022-08-31T12:08:20.022Z,62.43
2022-08-31T12:10:53.210Z,62.45
2022-08-31T12:13:30.925Z,62.64
2022-08-31T12:16:25.065Z,62.51
2022-08-31T12:18:59.390Z,62.65
2022-08-31T12:21:48.006Z,62.64
2022-08-31T12:24:24.080Z,62.64
2022-08-31T12:27:10.383Z,62.65
2022-08-31T12:29:38.664Z,62.43
2022-08-31T12:32:14.849Z,62.37
2022-08-31T12:34:45.532Z,62.44
2022-08-31T12:37:20.947Z,62.39
2022-08-31T12:39:50.238Z,62.35
2022-08-31T12:42:19.060Z,62.39
2022-08-31T12:44:50.906Z,62.58
2022-08-31T12:47:24.286Z,62.49
2022-08-31T12:49:58.149Z,62.60
2022-08-31T12:52:35.225Z,62.62
2022-08-31T12:55:19.338Z,62.46
2022-08-31T12:58:29.389Z,62.31
2022-08-31T13:01:09.166Z,62.46
2022-08-31T13:03:38.490Z,62.46
2022-08-31T13:06:08.309Z,62.43
2022-08-31T13:08:37.684Z,62.11
2022-08-31T13:11:25.826Z,62.01
2022-08-31T13:14:14.883Z,61.83
2022-08-31T13:16:43.925Z,61.78
2022-08-31T13:19:18.757Z,61.58
2022-08-31T13:21:50.840Z,61.44
2022-08-31T13:24:18.458Z,61.27
2022-08-31T13:26:47.457Z,61.21
2022-08-31T13:29:17.532Z,61.03
2022-08-31T13:31:48.854Z,61.23
2022-08-31T13:34:16.475Z,61.23
2022-08-31T13:36:47.696Z,61.05
2022-08-31T13:39:24.130Z,60.90
2022-08-31T13:41:58.613Z,60.80
2022-08-31T13:44:33.802Z,60.90
2022-08-31T13:47:02.930Z,60.98
2022-08-31T13:49:32.199Z,60.87
2022-08-31T13:51:59.932Z,60.85
2022-08-31T13:54:29.168Z,60.99
2022-08-31T13:57:09.342Z,60.54
2022-08-31T13:59:38.005Z,60.59
2022-08-31T14:02:27.555Z,60.33
2022-08-31T14:05:01.715Z,60.24
2022-08-31T14:07:32.063Z,59.79
2022-08-31T14:10:00.713Z,59.94
2022-08-31T14:12:36.307Z,60.10
2022-08-31T14:15:09.114Z,60.11
2022-08-31T14:17:40.641Z,60.16
2022-08-31T14:20:29.261Z,60.10
2022-08-31T14:22:57.198Z,60.19
2022-08-31T14:25:25.022Z,60.12
2022-08-31T14:27:54.784Z,60.01
2022-08-31T14:30:22.549Z,59.72
2022-08-31T14:32:50.208Z,59.63
2022-08-31T14:35:18.116Z,59.72
2022-08-31T14:37:45.715Z,59.67
2022-08-31T14:40:13.957Z,59.85
2022-08-31T14:42:43.459Z,59.73
2022-08-31T14:45:18.463Z,59.97
2022-08-31T14:47:47.832Z,59.89
2022-08-31T14:50:18.633Z,60.01
2022-08-31T14:52:49.433Z,59.95
2022-08-31T14:55:19.998Z,60.11
2022-08-31T14:57:55.545Z,60.19
2022-08-31T15:00:24.670Z,60.35
2022-08-31T15:02:53.322Z,60.17
2022-08-31T15:05:23.875Z,60.39
2022-08-31T15:07:52.791Z,60.58
2022-08-31T15:10:20.995Z,60.46
2022-08-31T15:12:50.064Z,60.48
2022-08-31T15:15:20.314Z,60.86
2022-08-31T15:17:50.433Z,60.88
2022-08-31T15:20:23.435Z,61.13
2022-08-31T15:22:51.505Z,61.25
2022-08-31T15:25:20.696Z,61.26
2022-08-31T15:27:49.321Z,61.31
2022-08-31T15:30:18.811Z,61.49
2022-08-31T15:32:48.858Z,61.54
2022-08-31T15:35:18.849Z,61.32
2022-08-31T15:37:53.024Z,61.48
2022-08-31T15:40:21.586Z,61.57
2022-08-31T15:42:50.837Z,61.49
2022-08-31T15:45:18.504Z,61.64
2022-08-31T15:48:03.657Z,61.66
2022-08-31T15:50:33.177Z,61.64
2022-08-31T15:53:05.191Z,61.90
2022-08-31T15:55:38.796Z,61.79
2022-08-31T15:58:07.745Z,61.66
2022-08-31T16:00:36.475Z,61.61
2022-08-31T16:03:05.087Z,61.47
2022-08-31T16:05:38.747Z,61.52
2022-08-31T16:08:10.875Z,61.51
2022-08-31T16:10:39.474Z,61.67
2022-08-31T16:13:07.557Z,61.61
2022-08-31T16:15:35.306Z,61.60
2022-08-31T16:18:05.203Z,61.91
2022-08-31T16:20:34.713Z,61.79
2022-08-31T16:23:02.987Z,61.75
2022-08-31T16:25:47.505Z,61.73
2022-08-31T16:28:17.293Z,61.73
2022-08-31T16:30:45.339Z,61.87
2022-08-31T16:33:13.113Z,61.90
2022-08-31T16:35:44.389Z,61.73
2022-08-31T16:38:12.201Z,61.72
2022-08-31T16:40:41.507Z,61.62
2022-08-31T16:43:09.556Z,61.70
2022-08-31T16:45:39.044Z,61.58
2022-08-31T16:48:38.913Z,61.43
2022-08-31T16:51:15.057Z,61.57
2022-08-31T16:53:45.072Z,61.49
2022-08-31T16:56:12.888Z,61.28
2022-08-31T16:58:51.645Z,61.27
2022-08-31T17:01:21.861Z,61.08
2022-08-31T17:03:50.945Z,60.99
2022-08-31T17:06:20.126Z,60.94
2022-08-31T17:08:47.829Z,60.93
2022-08-31T17:11:21.457Z,60.82
2022-08-31T17:13:49.618Z,61.04
2022-08-31T17:16:21.146Z,61.02
2022-08-31T17:18:50.532Z,61.01
2022-08-31T17:21:22.403Z,60.93
2022-08-31T17:23:51.371Z,61.07
2022-08-31T17:26:19.591Z,61.08
2022-08-31T17:28:58.756Z,61.00
2022-08-31T17:31:27.710Z,60.90
2022-08-31T17:33:55.726Z,60.83
2022-08-31T17:36:25.849Z,60.91
2022-08-31T17:38:55.084Z,60.89
2022-08-31T17:41:26.576Z,60.86
2022-08-31T17:43:57.173Z,60.74
2022-08-31T17:46:25.856Z,60.79
2022-08-31T17:48:55.745Z,60.61
2022-08-31T17:51:27.463Z,60.62
2022-08-31T17:53:57.061Z,60.74
2022-08-31T17:56:25.493Z,60.83
2022-08-31T17:58:54.473Z,60.74
2022-08-31T18:01:30.169Z,60.88
2022-08-31T18:03:59.606Z,60.95
2022-08-31T18:06:28.838Z,60.87
2022-08-31T18:08:56.699Z,60.94
2022-08-31T18:11:24.426Z,60.78
2022-08-31T18:13:53.769Z,60.61
2022-08-31T18:16:21.670Z,60.59
2022-08-31T18:18:50.157Z,60.87
2022-08-31T18:21:19.025Z,60.43
2022-08-31T18:23:48.803Z,60.72
2022-08-31T18:26:18.285Z,60.65
2022-08-31T18:28:49.795Z,60.55
2022-08-31T18:31:18.577Z,60.54
2022-08-31T18:33:50.953Z,60.62
2022-08-31T18:36:19.261Z,60.61
2022-08-31T18:38:52.456Z,60.49
2022-08-31T18:41:38.129Z,60.42
2022-08-31T18:44:23.501Z,60.42
2022-08-31T18:46:51.434Z,60.46
2022-08-31T18:49:22.189Z,60.41
2022-08-31T18:51:50.487Z,60.31
2022-08-31T18:54:19.681Z,60.02
2022-08-31T18:56:47.440Z,60.03
2022-08-31T18:59:15.368Z,60.14
2022-08-31T19:01:44.087Z,60.04
2022-08-31T19:04:12.054Z,59.93
2022-08-31T19:06:40.240Z,60.12
2022-08-31T19:09:08.421Z,59.86
2022-08-31T19:11:38.237Z,60.05
2022-08-31T19:14:05.917Z,59.90
2022-08-31T19:16:33.565Z,59.76
2022-08-31T19:19:01.405Z,59.82
2022-08-31T19:21:31.171Z,59.81
2022-08-31T19:24:00.228Z,59.52
2022-08-31T19:26:29.974Z,59.75
2022-08-31T19:28:59.132Z,59.62
2022-08-31T19:31:27.637Z,59.56
2022-08-31T19:33:57.012Z,59.53
2022-08-31T19:36:25.111Z,59.67
2022-08-31T19:38:53.934Z,59.68
2022-08-31T19:41:22.832Z,59.35
2022-08-31T19:43:56.010Z,59.44
2022-08-31T19:46:33.824Z,59.48
2022-08-31T19:49:01.630Z,59.46
2022-08-31T19:51:29.859Z,59.38
2022-08-31T19:53:59.113Z,59.26
2022-08-31T19:56:30.442Z,59.41
2022-08-31T19:58:58.788Z,59.41
2022-08-31T20:01:33.635Z,59.22
2022-08-31T20:04:04.098Z,59.06
2022-08-31T20:06:32.499Z,59.23
2022-08-31T20:09:00.217Z,59.03
2022-08-31T20:11:29.614Z,59.29
2022-08-31T20:13:58.439Z,59.10
2022-08-31T20:16:33.396Z,58.97
2022-08-31T20:19:04.041Z,58.98
2022-08-31T20:21:32.809Z,58.89
2022-08-31T20:24:03.085Z,58.99
2022-08-31T20:26:33.210Z,58.76
2022-08-31T20:29:06.715Z,58.71
2022-08-31T20:31:34.583Z,58.66
2022-08-31T20:34:03.885Z,58.92
2022-08-31T20:36:32.503Z,58.56
2022-08-31T20:39:01.779Z,58.51
2022-08-31T20:41:32.173Z,58.58
2022-08-31T20:44:00.839Z,58.57
2022-08-31T20:46:46.075Z,58.52
2022-08-31T20:49:32.049Z,58.33
2022-08-31T20:52:01.792Z,58.34
2022-08-31T20:54:31.807Z,58.15
2022-08-31T20:57:00.238Z,58.38
2022-08-31T20:59:28.081Z,58.06
2022-08-31T21:01:59.596Z,58.40
2022-08-31T21:04:29.811Z,58.30
2022-08-31T21:06:57.792Z,57.83
2022-08-31T21:09:25.563Z,58.23
2022-08-31T21:11:53.297Z,58.13
2022-08-31T21:14:21.097Z,58.13
2022-08-31T21:16:48.913Z,57.98
2022-08-31T21:19:18.809Z,57.99
2022-08-31T21:21:47.986Z,57.90
2022-08-31T21:24:17.053Z,57.95
2022-08-31T21:26:44.933Z,58.10
2022-08-31T21:29:13.298Z,57.88
2022-08-31T21:31:47.893Z,58.01
2022-08-31T21:34:18.000Z,57.94
2022-08-31T21:36:47.222Z,57.92
2022-08-31T21:39:16.169Z,57.96
2022-08-31T21:41:45.045Z,58.01
2022-08-31T21:44:13.404Z,57.97
2022-08-31T21:46:41.542Z,58.00
2022-08-31T21:49:10.637Z,57.87
2022-08-31T21:51:42.046Z,57.88
2022-08-31T21:54:11.233Z,57.80
2022-08-31T21:56:39.821Z,57.91
2022-08-31T21:59:07.653Z,57.68
2022-08-31T22:01:35.460Z,57.76
2022-08-31T22:04:06.937Z,57.77
2022-08-31T22:06:34.977Z,57.73
2022-08-31T22:09:05.641Z,57.91
2022-08-31T22:11:37.151Z,57.71
2022-08-31T22:14:07.633Z,57.80
2022-08-31T22:16:35.845Z,57.79
2022-08-31T22:19:03.823Z,57.67
2022-08-31T22:21:33.094Z,57.96
2022-08-31T22:24:02.141Z,57.94
2022-08-31T22:26:30.401Z,57.68
2022-08-31T22:28:59.859Z,57.79
2022-08-31T22:31:28.254Z,57.83
2022-08-31T22:33:56.210Z,57.67
2022-08-31T22:36:31.455Z,57.60
2022-08-31T22:39:00.485Z,57.66
2022-08-31T22:41:28.655Z,57.63
2022-08-31T22:43:56.788Z,57.57
2022-08-31T22:46:25.923Z,57.54
2022-08-31T22:48:53.621Z,57.60
2022-08-31T22:51:22.350Z,57.72
2022-08-31T22:53:51.495Z,57.59
2022-08-31T22:56:20.683Z,57.78
2022-08-31T22:58:49.064Z,57.57
2022-08-31T23:01:18.579Z,57.44
2022-08-31T23:03:50.991Z,57.45
2022-08-31T23:06:20.076Z,57.59
2022-08-31T23:08:48.467Z,57.62
2022-08-31T23:11:19.175Z,57.53
2022-08-31T23:13:55.436Z,57.55
2022-08-31T23:16:24.921Z,57.49
2022-08-31T23:18:57.266Z,57.53
2022-08-31T23:21:25.754Z,57.54
2022-08-31T23:23:54.066Z,57.55
2022-08-31T23:26:23.830Z,57.47
2022-08-31T23:28:52.678Z,57.45
2022-08-31T23:31:21.621Z,57.23
2022-08-31T23:33:53.386Z,57.45
2022-08-31T23:36:26.118Z,57.19
2022-08-31T23:38:54.749Z,57.09
2022-08-31T23:41:25.791Z,57.21
2022-08-31T23:43:54.154Z,57.12
2022-08-31T23:46:23.760Z,57.11
2022-08-31T23:48:52.164Z,57.27
2022-08-31T23:51:20.024Z,57.06
2022-08-31T23:53:55.155Z,57.16
2022-08-31T23:56:23.584Z,57.31
2022-08-31T23:58:51.381Z,57.21
